sensor_id;sensor_type;location;lat;lon;timestamp;P1;durP1;ratioP1;P2;durP2;ratioP2
42084;SDS011;27746;52.228;20.890;2022-12-29T00:00:59;11.40;;;5.80;;
42084;SDS011;27746;52.228;20.890;2022-12-29T00:03:26;10.93;;;5.38;;
42084;SDS011;27746;52.228;20.890;2022-12-29T00:05:54;9.93;;;5.45;;
42084;SDS011;27746;52.228;20.890;2022-12-29T00:08:22;14.20;;;6.00;;
42084;SDS011;27746;52.228;20.890;2022-12-29T00:11:05;13.00;;;5.50;;
42084;SDS011;27746;52.228;20.890;2022-12-29T00:13:33;11.68;;;6.82;;
42084;SDS011;27746;52.228;20.890;2022-12-29T00:16:18;12.20;;;6.53;;
42084;SDS011;27746;52.228;20.890;2022-12-29T00:18:45;13.18;;;7.70;;
42084;SDS011;27746;52.228;20.890;2022-12-29T00:21:14;12.77;;;7.05;;
42084;SDS011;27746;52.228;20.890;2022-12-29T00:23:59;13.80;;;6.15;;
42084;SDS011;27746;52.228;20.890;2022-12-29T00:26:48;10.90;;;5.93;;
42084;SDS011;27746;52.228;20.890;2022-12-29T00:29:34;11.55;;;5.60;;
42084;SDS011;27746;52.228;20.890;2022-12-29T00:32:19;12.00;;;6.25;;
42084;SDS011;27746;52.228;20.890;2022-12-29T00:35:04;11.65;;;5.97;;
42084;SDS011;27746;52.228;20.890;2022-12-29T00:37:34;11.93;;;6.13;;
42084;SDS011;27746;52.228;20.890;2022-12-29T00:40:19;13.68;;;6.50;;
42084;SDS011;27746;52.228;20.890;2022-12-29T00:43:05;10.27;;;5.78;;
42084;SDS011;27746;52.228;20.890;2022-12-29T00:45:50;9.90;;;5.70;;
42084;SDS011;27746;52.228;20.890;2022-12-29T00:48:17;14.48;;;6.53;;
42084;SDS011;27746;52.228;20.890;2022-12-29T00:51:04;10.02;;;4.57;;
42084;SDS011;27746;52.228;20.890;2022-12-29T00:53:30;11.40;;;5.55;;
42084;SDS011;27746;52.228;20.890;2022-12-29T00:55:58;9.93;;;5.00;;
42084;SDS011;27746;52.228;20.890;2022-12-29T00:58:27;10.07;;;5.38;;
42084;SDS011;27746;52.228;20.890;2022-12-29T01:01:00;8.85;;;4.90;;
42084;SDS011;27746;52.228;20.890;2022-12-29T01:03:28;9.18;;;5.10;;
42084;SDS011;27746;52.228;20.890;2022-12-29T01:05:55;8.82;;;5.35;;
42084;SDS011;27746;52.228;20.890;2022-12-29T01:08:22;10.05;;;4.93;;
42084;SDS011;27746;52.228;20.890;2022-12-29T01:10:57;10.07;;;5.40;;
42084;SDS011;27746;52.228;20.890;2022-12-29T01:13:23;9.75;;;4.70;;
42084;SDS011;27746;52.228;20.890;2022-12-29T01:15:52;7.90;;;5.18;;
42084;SDS011;27746;52.228;20.890;2022-12-29T01:18:19;8.48;;;4.20;;
42084;SDS011;27746;52.228;20.890;2022-12-29T01:20:46;10.88;;;4.95;;
42084;SDS011;27746;52.228;20.890;2022-12-29T01:23:14;11.10;;;6.50;;
42084;SDS011;27746;52.228;20.890;2022-12-29T01:25:41;15.43;;;7.20;;
42084;SDS011;27746;52.228;20.890;2022-12-29T01:28:08;11.63;;;5.00;;
42084;SDS011;27746;52.228;20.890;2022-12-29T01:30:35;11.90;;;4.57;;
42084;SDS011;27746;52.228;20.890;2022-12-29T01:33:04;10.95;;;5.07;;
42084;SDS011;27746;52.228;20.890;2022-12-29T01:35:31;11.95;;;4.63;;
42084;SDS011;27746;52.228;20.890;2022-12-29T01:37:59;9.73;;;4.75;;
42084;SDS011;27746;52.228;20.890;2022-12-29T01:40:26;8.05;;;4.53;;
42084;SDS011;27746;52.228;20.890;2022-12-29T01:42:53;8.55;;;4.85;;
42084;SDS011;27746;52.228;20.890;2022-12-29T01:45:22;7.43;;;4.18;;
42084;SDS011;27746;52.228;20.890;2022-12-29T01:47:49;9.52;;;5.10;;
42084;SDS011;27746;52.228;20.890;2022-12-29T01:50:20;8.93;;;4.55;;
42084;SDS011;27746;52.228;20.890;2022-12-29T01:52:50;9.02;;;4.50;;
42084;SDS011;27746;52.228;20.890;2022-12-29T01:55:19;9.25;;;4.90;;
42084;SDS011;27746;52.228;20.890;2022-12-29T01:57:47;8.27;;;4.90;;
42084;SDS011;27746;52.228;20.890;2022-12-29T02:00:16;7.75;;;3.90;;
42084;SDS011;27746;52.228;20.890;2022-12-29T02:02:44;8.20;;;4.68;;
42084;SDS011;27746;52.228;20.890;2022-12-29T02:05:14;9.63;;;5.20;;
42084;SDS011;27746;52.228;20.890;2022-12-29T02:07:44;8.32;;;4.55;;
42084;SDS011;27746;52.228;20.890;2022-12-29T02:10:11;9.15;;;4.97;;
42084;SDS011;27746;52.228;20.890;2022-12-29T02:12:39;9.15;;;4.68;;
42084;SDS011;27746;52.228;20.890;2022-12-29T02:15:06;8.10;;;4.55;;
42084;SDS011;27746;52.228;20.890;2022-12-29T02:20:37;9.68;;;4.07;;
42084;SDS011;27746;52.228;20.890;2022-12-29T02:23:25;7.75;;;4.75;;
42084;SDS011;27746;52.228;20.890;2022-12-29T02:26:07;7.30;;;4.00;;
42084;SDS011;27746;52.228;20.890;2022-12-29T02:31:21;8.95;;;4.38;;
42084;SDS011;27746;52.228;20.890;2022-12-29T02:33:54;6.97;;;4.15;;
42084;SDS011;27746;52.228;20.890;2022-12-29T02:36:25;6.70;;;4.38;;
42084;SDS011;27746;52.228;20.890;2022-12-29T02:38:57;9.68;;;4.18;;
42084;SDS011;27746;52.228;20.890;2022-12-29T02:41:29;6.60;;;4.03;;
42084;SDS011;27746;52.228;20.890;2022-12-29T02:43:59;11.57;;;4.25;;
42084;SDS011;27746;52.228;20.890;2022-12-29T02:46:32;8.98;;;4.78;;
42084;SDS011;27746;52.228;20.890;2022-12-29T02:49:03;8.52;;;4.00;;
42084;SDS011;27746;52.228;20.890;2022-12-29T02:51:34;12.18;;;5.90;;
42084;SDS011;27746;52.228;20.890;2022-12-29T02:54:02;6.72;;;3.72;;
42084;SDS011;27746;52.228;20.890;2022-12-29T02:56:47;6.50;;;3.90;;
42084;SDS011;27746;52.228;20.890;2022-12-29T02:59:15;9.65;;;4.35;;
42084;SDS011;27746;52.228;20.890;2022-12-29T03:01:53;7.68;;;3.83;;
42084;SDS011;27746;52.228;20.890;2022-12-29T03:05:15;6.60;;;4.20;;
42084;SDS011;27746;52.228;20.890;2022-12-29T03:07:46;8.65;;;3.97;;
42084;SDS011;27746;52.228;20.890;2022-12-29T03:10:19;9.60;;;4.70;;
42084;SDS011;27746;52.228;20.890;2022-12-29T03:12:51;12.18;;;5.80;;
42084;SDS011;27746;52.228;20.890;2022-12-29T03:15:39;6.53;;;3.85;;
42084;SDS011;27746;52.228;20.890;2022-12-29T03:18:32;7.93;;;4.43;;
42084;SDS011;27746;52.228;20.890;2022-12-29T03:21:02;10.38;;;4.97;;
42084;SDS011;27746;52.228;20.890;2022-12-29T03:23:30;9.10;;;4.78;;
42084;SDS011;27746;52.228;20.890;2022-12-29T03:25:59;8.10;;;4.18;;
42084;SDS011;27746;52.228;20.890;2022-12-29T03:28:29;9.30;;;3.80;;
42084;SDS011;27746;52.228;20.890;2022-12-29T03:30:59;8.88;;;3.83;;
42084;SDS011;27746;52.228;20.890;2022-12-29T03:33:27;10.23;;;5.78;;
42084;SDS011;27746;52.228;20.890;2022-12-29T03:35:59;7.30;;;4.18;;
42084;SDS011;27746;52.228;20.890;2022-12-29T03:38:27;11.95;;;4.55;;
42084;SDS011;27746;52.228;20.890;2022-12-29T03:40:58;7.47;;;3.90;;
42084;SDS011;27746;52.228;20.890;2022-12-29T03:43:26;9.27;;;4.57;;
42084;SDS011;27746;52.228;20.890;2022-12-29T03:45:54;9.00;;;4.00;;
42084;SDS011;27746;52.228;20.890;2022-12-29T03:48:21;9.05;;;4.32;;
42084;SDS011;27746;52.228;20.890;2022-12-29T03:50:48;8.25;;;4.30;;
42084;SDS011;27746;52.228;20.890;2022-12-29T03:53:17;8.82;;;4.50;;
42084;SDS011;27746;52.228;20.890;2022-12-29T03:55:44;8.88;;;4.07;;
42084;SDS011;27746;52.228;20.890;2022-12-29T03:58:11;7.13;;;3.80;;
42084;SDS011;27746;52.228;20.890;2022-12-29T04:00:38;7.57;;;3.85;;
42084;SDS011;27746;52.228;20.890;2022-12-29T04:03:05;7.43;;;4.57;;
42084;SDS011;27746;52.228;20.890;2022-12-29T04:05:33;7.65;;;3.50;;
42084;SDS011;27746;52.228;20.890;2022-12-29T04:08:00;9.77;;;3.85;;
42084;SDS011;27746;52.228;20.890;2022-12-29T04:10:28;11.18;;;4.68;;
42084;SDS011;27746;52.228;20.890;2022-12-29T04:12:55;8.63;;;4.32;;
42084;SDS011;27746;52.228;20.890;2022-12-29T04:15:22;7.50;;;3.88;;
42084;SDS011;27746;52.228;20.890;2022-12-29T04:17:51;9.10;;;4.10;;
42084;SDS011;27746;52.228;20.890;2022-12-29T04:20:18;9.13;;;4.53;;
42084;SDS011;27746;52.228;20.890;2022-12-29T04:23:03;9.25;;;5.32;;
42084;SDS011;27746;52.228;20.890;2022-12-29T04:25:32;6.80;;;3.95;;
42084;SDS011;27746;52.228;20.890;2022-12-29T04:28:00;9.38;;;4.82;;
42084;SDS011;27746;52.228;20.890;2022-12-29T04:30:27;7.75;;;4.13;;
42084;SDS011;27746;52.228;20.890;2022-12-29T04:32:54;10.63;;;5.03;;
42084;SDS011;27746;52.228;20.890;2022-12-29T04:35:21;9.88;;;4.28;;
42084;SDS011;27746;52.228;20.890;2022-12-29T04:37:48;8.45;;;4.50;;
42084;SDS011;27746;52.228;20.890;2022-12-29T04:40:16;8.73;;;4.47;;
42084;SDS011;27746;52.228;20.890;2022-12-29T04:42:44;9.63;;;5.10;;
42084;SDS011;27746;52.228;20.890;2022-12-29T04:45:11;15.23;;;5.65;;
42084;SDS011;27746;52.228;20.890;2022-12-29T04:47:39;8.60;;;4.97;;
42084;SDS011;27746;52.228;20.890;2022-12-29T04:50:06;9.52;;;5.55;;
42084;SDS011;27746;52.228;20.890;2022-12-29T04:52:33;8.82;;;6.10;;
42084;SDS011;27746;52.228;20.890;2022-12-29T04:55:01;10.77;;;5.07;;
42084;SDS011;27746;52.228;20.890;2022-12-29T04:57:28;11.13;;;5.07;;
42084;SDS011;27746;52.228;20.890;2022-12-29T04:59:57;13.25;;;5.97;;
42084;SDS011;27746;52.228;20.890;2022-12-29T05:02:24;11.80;;;6.32;;
42084;SDS011;27746;52.228;20.890;2022-12-29T05:04:51;11.80;;;5.95;;
42084;SDS011;27746;52.228;20.890;2022-12-29T05:07:18;11.98;;;6.13;;
42084;SDS011;27746;52.228;20.890;2022-12-29T05:09:46;11.40;;;6.03;;
42084;SDS011;27746;52.228;20.890;2022-12-29T05:12:13;13.88;;;6.35;;
42084;SDS011;27746;52.228;20.890;2022-12-29T05:14:40;10.52;;;5.25;;
42084;SDS011;27746;52.228;20.890;2022-12-29T05:17:08;12.07;;;5.85;;
42084;SDS011;27746;52.228;20.890;2022-12-29T05:19:36;12.13;;;5.93;;
42084;SDS011;27746;52.228;20.890;2022-12-29T05:22:05;11.32;;;5.88;;
42084;SDS011;27746;52.228;20.890;2022-12-29T05:24:32;10.50;;;5.45;;
42084;SDS011;27746;52.228;20.890;2022-12-29T05:26:59;13.45;;;6.57;;
42084;SDS011;27746;52.228;20.890;2022-12-29T05:29:26;13.32;;;6.45;;
42084;SDS011;27746;52.228;20.890;2022-12-29T05:31:53;10.70;;;5.63;;
42084;SDS011;27746;52.228;20.890;2022-12-29T05:34:22;14.35;;;6.45;;
42084;SDS011;27746;52.228;20.890;2022-12-29T05:36:49;10.32;;;6.05;;
42084;SDS011;27746;52.228;20.890;2022-12-29T05:39:17;11.95;;;6.82;;
42084;SDS011;27746;52.228;20.890;2022-12-29T05:41:44;13.75;;;6.35;;
42084;SDS011;27746;52.228;20.890;2022-12-29T05:44:11;10.65;;;6.15;;
42084;SDS011;27746;52.228;20.890;2022-12-29T05:46:38;14.20;;;7.10;;
42084;SDS011;27746;52.228;20.890;2022-12-29T05:49:06;10.80;;;6.07;;
42084;SDS011;27746;52.228;20.890;2022-12-29T05:51:34;12.25;;;6.95;;
42084;SDS011;27746;52.228;20.890;2022-12-29T05:54:01;13.20;;;5.82;;
42084;SDS011;27746;52.228;20.890;2022-12-29T05:56:31;17.58;;;6.78;;
42084;SDS011;27746;52.228;20.890;2022-12-29T05:58:58;11.88;;;6.25;;
42084;SDS011;27746;52.228;20.890;2022-12-29T06:01:25;12.63;;;5.90;;
42084;SDS011;27746;52.228;20.890;2022-12-29T06:03:52;13.73;;;6.75;;
42084;SDS011;27746;52.228;20.890;2022-12-29T06:06:21;13.05;;;5.70;;
42084;SDS011;27746;52.228;20.890;2022-12-29T06:08:49;12.25;;;6.53;;
42084;SDS011;27746;52.228;20.890;2022-12-29T06:11:16;12.65;;;6.50;;
42084;SDS011;27746;52.228;20.890;2022-12-29T06:13:44;14.38;;;6.57;;
42084;SDS011;27746;52.228;20.890;2022-12-29T06:16:11;12.82;;;6.15;;
42084;SDS011;27746;52.228;20.890;2022-12-29T06:18:38;14.27;;;5.97;;
42084;SDS011;27746;52.228;20.890;2022-12-29T06:21:05;10.38;;;6.00;;
42084;SDS011;27746;52.228;20.890;2022-12-29T06:23:33;12.32;;;6.70;;
42084;SDS011;27746;52.228;20.890;2022-12-29T06:26:01;13.82;;;6.70;;
42084;SDS011;27746;52.228;20.890;2022-12-29T06:28:28;12.73;;;6.35;;
42084;SDS011;27746;52.228;20.890;2022-12-29T06:30:55;13.93;;;6.45;;
42084;SDS011;27746;52.228;20.890;2022-12-29T06:33:23;12.75;;;6.65;;
42084;SDS011;27746;52.228;20.890;2022-12-29T06:35:50;13.60;;;6.32;;
42084;SDS011;27746;52.228;20.890;2022-12-29T06:38:17;13.00;;;7.07;;
42084;SDS011;27746;52.228;20.890;2022-12-29T06:40:44;15.23;;;6.88;;
42084;SDS011;27746;52.228;20.890;2022-12-29T06:43:13;17.48;;;7.10;;
42084;SDS011;27746;52.228;20.890;2022-12-29T06:45:40;12.57;;;7.13;;
42084;SDS011;27746;52.228;20.890;2022-12-29T06:48:07;12.65;;;6.50;;
42084;SDS011;27746;52.228;20.890;2022-12-29T06:50:34;10.48;;;5.75;;
42084;SDS011;27746;52.228;20.890;2022-12-29T06:53:02;16.02;;;7.30;;
42084;SDS011;27746;52.228;20.890;2022-12-29T06:55:29;14.45;;;6.57;;
42084;SDS011;27746;52.228;20.890;2022-12-29T06:57:56;15.18;;;9.02;;
42084;SDS011;27746;52.228;20.890;2022-12-29T07:00:27;13.65;;;7.90;;
42084;SDS011;27746;52.228;20.890;2022-12-29T07:02:54;17.80;;;7.30;;
42084;SDS011;27746;52.228;20.890;2022-12-29T07:05:22;13.63;;;6.18;;
42084;SDS011;27746;52.228;20.890;2022-12-29T07:07:51;16.23;;;6.10;;
42084;SDS011;27746;52.228;20.890;2022-12-29T07:10:19;13.40;;;5.45;;
42084;SDS011;27746;52.228;20.890;2022-12-29T07:12:46;13.40;;;5.70;;
42084;SDS011;27746;52.228;20.890;2022-12-29T07:15:13;13.75;;;7.28;;
42084;SDS011;27746;52.228;20.890;2022-12-29T07:17:42;10.70;;;5.55;;
42084;SDS011;27746;52.228;20.890;2022-12-29T07:20:09;13.57;;;5.63;;
42084;SDS011;27746;52.228;20.890;2022-12-29T07:22:36;12.65;;;5.93;;
42084;SDS011;27746;52.228;20.890;2022-12-29T07:25:04;8.95;;;5.13;;
42084;SDS011;27746;52.228;20.890;2022-12-29T07:27:31;11.32;;;5.30;;
42084;SDS011;27746;52.228;20.890;2022-12-29T07:29:58;10.73;;;5.35;;
42084;SDS011;27746;52.228;20.890;2022-12-29T07:32:25;14.25;;;5.30;;
42084;SDS011;27746;52.228;20.890;2022-12-29T07:34:54;9.32;;;4.60;;
42084;SDS011;27746;52.228;20.890;2022-12-29T07:37:21;9.93;;;5.22;;
42084;SDS011;27746;52.228;20.890;2022-12-29T07:39:48;7.47;;;4.32;;
42084;SDS011;27746;52.228;20.890;2022-12-29T07:42:16;9.38;;;4.78;;
42084;SDS011;27746;52.228;20.890;2022-12-29T07:44:43;11.27;;;5.07;;
42084;SDS011;27746;52.228;20.890;2022-12-29T07:47:10;9.60;;;4.57;;
42084;SDS011;27746;52.228;20.890;2022-12-29T07:49:37;11.57;;;4.80;;
42084;SDS011;27746;52.228;20.890;2022-12-29T07:52:06;12.43;;;5.00;;
42084;SDS011;27746;52.228;20.890;2022-12-29T07:54:33;10.93;;;6.03;;
42084;SDS011;27746;52.228;20.890;2022-12-29T07:57:00;10.55;;;4.50;;
42084;SDS011;27746;52.228;20.890;2022-12-29T07:59:27;10.32;;;5.30;;
42084;SDS011;27746;52.228;20.890;2022-12-29T08:01:55;8.60;;;4.55;;
42084;SDS011;27746;52.228;20.890;2022-12-29T08:04:22;10.38;;;4.97;;
42084;SDS011;27746;52.228;20.890;2022-12-29T08:06:50;8.25;;;4.20;;
42084;SDS011;27746;52.228;20.890;2022-12-29T08:09:18;9.77;;;4.55;;
42084;SDS011;27746;52.228;20.890;2022-12-29T08:11:45;11.68;;;4.75;;
42084;SDS011;27746;52.228;20.890;2022-12-29T08:14:12;9.30;;;4.80;;
42084;SDS011;27746;52.228;20.890;2022-12-29T08:16:40;11.43;;;4.45;;
42084;SDS011;27746;52.228;20.890;2022-12-29T08:19:09;12.20;;;4.57;;
42084;SDS011;27746;52.228;20.890;2022-12-29T08:21:36;8.77;;;4.50;;
42084;SDS011;27746;52.228;20.890;2022-12-29T08:24:04;12.43;;;6.18;;
42084;SDS011;27746;52.228;20.890;2022-12-29T08:26:32;10.95;;;5.18;;
42084;SDS011;27746;52.228;20.890;2022-12-29T08:28:59;7.80;;;5.40;;
42084;SDS011;27746;52.228;20.890;2022-12-29T08:31:27;10.07;;;4.53;;
42084;SDS011;27746;52.228;20.890;2022-12-29T08:33:54;8.00;;;4.30;;
42084;SDS011;27746;52.228;20.890;2022-12-29T08:36:21;7.47;;;4.43;;
42084;SDS011;27746;52.228;20.890;2022-12-29T08:38:48;9.32;;;4.60;;
42084;SDS011;27746;52.228;20.890;2022-12-29T08:41:15;9.23;;;4.15;;
42084;SDS011;27746;52.228;20.890;2022-12-29T08:43:46;6.30;;;3.95;;
42084;SDS011;27746;52.228;20.890;2022-12-29T08:46:13;10.70;;;4.20;;
42084;SDS011;27746;52.228;20.890;2022-12-29T08:48:41;8.98;;;3.97;;
42084;SDS011;27746;52.228;20.890;2022-12-29T08:51:08;10.18;;;4.40;;
42084;SDS011;27746;52.228;20.890;2022-12-29T08:53:35;13.70;;;4.97;;
42084;SDS011;27746;52.228;20.890;2022-12-29T08:56:02;12.32;;;4.97;;
42084;SDS011;27746;52.228;20.890;2022-12-29T08:58:30;11.18;;;4.55;;
42084;SDS011;27746;52.228;20.890;2022-12-29T09:00:58;9.13;;;4.32;;
42084;SDS011;27746;52.228;20.890;2022-12-29T09:03:26;9.43;;;5.00;;
42084;SDS011;27746;52.228;20.890;2022-12-29T09:05:53;8.63;;;5.13;;
42084;SDS011;27746;52.228;20.890;2022-12-29T09:08:21;9.35;;;4.75;;
42084;SDS011;27746;52.228;20.890;2022-12-29T09:10:48;8.63;;;4.65;;
42084;SDS011;27746;52.228;20.890;2022-12-29T09:13:16;8.70;;;4.18;;
42084;SDS011;27746;52.228;20.890;2022-12-29T09:15:43;11.35;;;4.70;;
42084;SDS011;27746;52.228;20.890;2022-12-29T09:18:12;8.80;;;4.40;;
42084;SDS011;27746;52.228;20.890;2022-12-29T09:20:39;8.55;;;4.25;;
42084;SDS011;27746;52.228;20.890;2022-12-29T09:23:06;9.13;;;4.13;;
42084;SDS011;27746;52.228;20.890;2022-12-29T09:25:35;9.40;;;4.38;;
42084;SDS011;27746;52.228;20.890;2022-12-29T09:28:02;7.03;;;4.32;;
42084;SDS011;27746;52.228;20.890;2022-12-29T09:30:32;6.72;;;3.78;;
42084;SDS011;27746;52.228;20.890;2022-12-29T09:32:59;9.13;;;4.60;;
42084;SDS011;27746;52.228;20.890;2022-12-29T09:35:28;7.72;;;4.65;;
42084;SDS011;27746;52.228;20.890;2022-12-29T09:37:55;8.63;;;4.13;;
42084;SDS011;27746;52.228;20.890;2022-12-29T09:40:26;9.60;;;5.10;;
42084;SDS011;27746;52.228;20.890;2022-12-29T09:45:40;9.55;;;5.07;;
42084;SDS011;27746;52.228;20.890;2022-12-29T09:48:11;7.80;;;4.93;;
42084;SDS011;27746;52.228;20.890;2022-12-29T09:50:41;9.50;;;4.45;;
42084;SDS011;27746;52.228;20.890;2022-12-29T09:53:11;9.38;;;4.57;;
42084;SDS011;27746;52.228;20.890;2022-12-29T09:55:42;8.00;;;3.67;;
42084;SDS011;27746;52.228;20.890;2022-12-29T09:58:12;7.07;;;3.72;;
42084;SDS011;27746;52.228;20.890;2022-12-29T10:00:43;8.65;;;3.90;;
42084;SDS011;27746;52.228;20.890;2022-12-29T10:03:15;6.82;;;4.20;;
42084;SDS011;27746;52.228;20.890;2022-12-29T10:05:46;6.45;;;3.88;;
42084;SDS011;27746;52.228;20.890;2022-12-29T10:08:19;12.23;;;4.28;;
42084;SDS011;27746;52.228;20.890;2022-12-29T10:10:50;8.07;;;3.72;;
42084;SDS011;27746;52.228;20.890;2022-12-29T10:13:25;7.03;;;4.20;;
42084;SDS011;27746;52.228;20.890;2022-12-29T10:15:59;10.50;;;4.45;;
42084;SDS011;27746;52.228;20.890;2022-12-29T10:21:17;8.60;;;4.55;;
42084;SDS011;27746;52.228;20.890;2022-12-29T10:23:49;10.35;;;4.78;;
42084;SDS011;27746;52.228;20.890;2022-12-29T10:26:20;9.35;;;4.90;;
42084;SDS011;27746;52.228;20.890;2022-12-29T10:28:49;8.10;;;4.15;;
42084;SDS011;27746;52.228;20.890;2022-12-29T10:31:18;10.65;;;4.63;;
42084;SDS011;27746;52.228;20.890;2022-12-29T10:33:48;8.07;;;4.53;;
42084;SDS011;27746;52.228;20.890;2022-12-29T10:36:18;10.35;;;4.70;;
42084;SDS011;27746;52.228;20.890;2022-12-29T10:38:48;8.60;;;4.75;;
42084;SDS011;27746;52.228;20.890;2022-12-29T10:41:20;12.07;;;4.47;;
42084;SDS011;27746;52.228;20.890;2022-12-29T10:43:48;9.75;;;4.82;;
42084;SDS011;27746;52.228;20.890;2022-12-29T10:46:18;8.30;;;4.65;;
42084;SDS011;27746;52.228;20.890;2022-12-29T10:48:48;9.35;;;4.97;;
42084;SDS011;27746;52.228;20.890;2022-12-29T10:51:20;8.77;;;4.38;;
42084;SDS011;27746;52.228;20.890;2022-12-29T10:53:50;10.43;;;5.07;;
42084;SDS011;27746;52.228;20.890;2022-12-29T10:56:21;9.90;;;4.80;;
42084;SDS011;27746;52.228;20.890;2022-12-29T10:58:49;10.00;;;4.07;;
42084;SDS011;27746;52.228;20.890;2022-12-29T11:01:17;9.77;;;4.72;;
42084;SDS011;27746;52.228;20.890;2022-12-29T11:03:48;9.38;;;4.40;;
42084;SDS011;27746;52.228;20.890;2022-12-29T11:06:18;11.07;;;5.28;;
42084;SDS011;27746;52.228;20.890;2022-12-29T11:08:52;8.65;;;4.45;;
42084;SDS011;27746;52.228;20.890;2022-12-29T11:11:24;15.75;;;5.63;;
42084;SDS011;27746;52.228;20.890;2022-12-29T11:13:55;10.40;;;5.15;;
42084;SDS011;27746;52.228;20.890;2022-12-29T11:16:26;9.93;;;4.35;;
42084;SDS011;27746;52.228;20.890;2022-12-29T11:18:55;8.63;;;4.50;;
42084;SDS011;27746;52.228;20.890;2022-12-29T11:21:25;10.60;;;5.45;;
42084;SDS011;27746;52.228;20.890;2022-12-29T11:23:56;11.85;;;4.82;;
42084;SDS011;27746;52.228;20.890;2022-12-29T11:26:23;9.32;;;4.63;;
42084;SDS011;27746;52.228;20.890;2022-12-29T11:31:52;10.40;;;4.70;;
42084;SDS011;27746;52.228;20.890;2022-12-29T11:34:21;10.55;;;4.85;;
42084;SDS011;27746;52.228;20.890;2022-12-29T11:36:48;11.32;;;5.18;;
42084;SDS011;27746;52.228;20.890;2022-12-29T11:39:29;14.23;;;5.30;;
42084;SDS011;27746;52.228;20.890;2022-12-29T11:41:57;10.75;;;4.97;;
42084;SDS011;27746;52.228;20.890;2022-12-29T11:44:25;12.20;;;5.38;;
42084;SDS011;27746;52.228;20.890;2022-12-29T11:46:53;8.40;;;5.35;;
42084;SDS011;27746;52.228;20.890;2022-12-29T11:49:23;11.30;;;6.22;;
42084;SDS011;27746;52.228;20.890;2022-12-29T11:51:51;9.48;;;5.07;;
42084;SDS011;27746;52.228;20.890;2022-12-29T11:54:21;12.95;;;5.80;;
42084;SDS011;27746;52.228;20.890;2022-12-29T11:56:51;11.07;;;5.35;;
42084;SDS011;27746;52.228;20.890;2022-12-29T11:59:38;13.05;;;5.70;;
42084;SDS011;27746;52.228;20.890;2022-12-29T12:02:13;11.82;;;5.45;;
42084;SDS011;27746;52.228;20.890;2022-12-29T12:04:44;12.95;;;5.53;;
42084;SDS011;27746;52.228;20.890;2022-12-29T12:07:12;10.90;;;5.05;;
42084;SDS011;27746;52.228;20.890;2022-12-29T12:09:42;11.75;;;5.50;;
42084;SDS011;27746;52.228;20.890;2022-12-29T12:12:15;10.65;;;6.07;;
42084;SDS011;27746;52.228;20.890;2022-12-29T12:14:46;11.68;;;4.95;;
42084;SDS011;27746;52.228;20.890;2022-12-29T12:17:17;7.90;;;4.32;;
42084;SDS011;27746;52.228;20.890;2022-12-29T12:19:46;9.45;;;4.70;;
42084;SDS011;27746;52.228;20.890;2022-12-29T12:22:16;7.70;;;4.22;;
42084;SDS011;27746;52.228;20.890;2022-12-29T12:24:47;8.05;;;4.60;;
42084;SDS011;27746;52.228;20.890;2022-12-29T12:27:18;9.55;;;5.38;;
42084;SDS011;27746;52.228;20.890;2022-12-29T12:32:17;14.80;;;5.45;;
42084;SDS011;27746;52.228;20.890;2022-12-29T12:34:46;9.52;;;4.55;;
42084;SDS011;27746;52.228;20.890;2022-12-29T12:37:22;10.02;;;4.65;;
42084;SDS011;27746;52.228;20.890;2022-12-29T12:40:00;7.40;;;4.18;;
42084;SDS011;27746;52.228;20.890;2022-12-29T12:42:36;8.60;;;4.43;;
42084;SDS011;27746;52.228;20.890;2022-12-29T12:45:17;10.52;;;5.15;;
42084;SDS011;27746;52.228;20.890;2022-12-29T12:47:55;8.70;;;4.68;;
42084;SDS011;27746;52.228;20.890;2022-12-29T12:50:32;11.52;;;5.22;;
42084;SDS011;27746;52.228;20.890;2022-12-29T12:53:13;11.07;;;4.97;;
42084;SDS011;27746;52.228;20.890;2022-12-29T12:55:47;10.43;;;4.55;;
42084;SDS011;27746;52.228;20.890;2022-12-29T12:58:20;11.00;;;5.30;;
42084;SDS011;27746;52.228;20.890;2022-12-29T13:00:50;7.53;;;4.07;;
42084;SDS011;27746;52.228;20.890;2022-12-29T13:03:24;12.27;;;4.57;;
42084;SDS011;27746;52.228;20.890;2022-12-29T13:06:09;10.60;;;4.85;;
42084;SDS011;27746;52.228;20.890;2022-12-29T13:08:43;11.48;;;5.03;;
42084;SDS011;27746;52.228;20.890;2022-12-29T13:11:14;10.98;;;4.90;;
42084;SDS011;27746;52.228;20.890;2022-12-29T13:13:51;9.30;;;3.75;;
42084;SDS011;27746;52.228;20.890;2022-12-29T13:16:24;11.32;;;5.40;;
42084;SDS011;27746;52.228;20.890;2022-12-29T13:18:56;12.93;;;5.73;;
42084;SDS011;27746;52.228;20.890;2022-12-29T13:21:30;10.45;;;4.75;;
42084;SDS011;27746;52.228;20.890;2022-12-29T13:23:59;16.63;;;5.60;;
42084;SDS011;27746;52.228;20.890;2022-12-29T13:26:30;9.95;;;5.05;;
42084;SDS011;27746;52.228;20.890;2022-12-29T13:29:03;9.38;;;4.22;;
42084;SDS011;27746;52.228;20.890;2022-12-29T13:31:33;8.27;;;4.37;;
42084;SDS011;27746;52.228;20.890;2022-12-29T13:34:05;10.40;;;5.47;;
42084;SDS011;27746;52.228;20.890;2022-12-29T13:36:40;8.70;;;4.38;;
42084;SDS011;27746;52.228;20.890;2022-12-29T13:39:10;12.85;;;5.13;;
42084;SDS011;27746;52.228;20.890;2022-12-29T13:41:40;10.15;;;4.65;;
42084;SDS011;27746;52.228;20.890;2022-12-29T13:44:11;11.55;;;4.25;;
42084;SDS011;27746;52.228;20.890;2022-12-29T13:46:42;9.98;;;4.68;;
42084;SDS011;27746;52.228;20.890;2022-12-29T13:49:12;10.63;;;5.18;;
42084;SDS011;27746;52.228;20.890;2022-12-29T13:51:41;8.73;;;4.43;;
42084;SDS011;27746;52.228;20.890;2022-12-29T13:54:12;13.13;;;4.88;;
42084;SDS011;27746;52.228;20.890;2022-12-29T13:56:42;9.50;;;5.25;;
42084;SDS011;27746;52.228;20.890;2022-12-29T13:59:16;10.73;;;5.10;;
42084;SDS011;27746;52.228;20.890;2022-12-29T14:01:48;8.80;;;4.82;;
42084;SDS011;27746;52.228;20.890;2022-12-29T14:04:20;11.50;;;5.07;;
42084;SDS011;27746;52.228;20.890;2022-12-29T14:06:52;12.05;;;5.70;;
42084;SDS011;27746;52.228;20.890;2022-12-29T14:09:29;11.05;;;5.28;;
42084;SDS011;27746;52.228;20.890;2022-12-29T14:12:00;8.73;;;4.90;;
42084;SDS011;27746;52.228;20.890;2022-12-29T14:14:28;10.90;;;4.88;;
42084;SDS011;27746;52.228;20.890;2022-12-29T14:17:08;9.57;;;4.97;;
42084;SDS011;27746;52.228;20.890;2022-12-29T14:19:36;10.95;;;5.88;;
42084;SDS011;27746;52.228;20.890;2022-12-29T14:22:06;12.30;;;5.47;;
42084;SDS011;27746;52.228;20.890;2022-12-29T14:24:41;10.90;;;5.38;;
42084;SDS011;27746;52.228;20.890;2022-12-29T14:29:55;11.88;;;6.40;;
42084;SDS011;27746;52.228;20.890;2022-12-29T14:32:35;13.63;;;7.07;;
42084;SDS011;27746;52.228;20.890;2022-12-29T14:37:45;12.30;;;5.63;;
42084;SDS011;27746;52.228;20.890;2022-12-29T14:40:14;11.85;;;5.03;;
42084;SDS011;27746;52.228;20.890;2022-12-29T14:42:43;11.18;;;5.10;;
42084;SDS011;27746;52.228;20.890;2022-12-29T14:45:24;7.68;;;4.63;;
42084;SDS011;27746;52.228;20.890;2022-12-29T14:47:52;12.90;;;4.90;;
42084;SDS011;27746;52.228;20.890;2022-12-29T14:50:21;10.40;;;5.60;;
42084;SDS011;27746;52.228;20.890;2022-12-29T14:52:50;10.77;;;5.40;;
42084;SDS011;27746;52.228;20.890;2022-12-29T14:55:35;9.15;;;5.22;;
42084;SDS011;27746;52.228;20.890;2022-12-29T14:58:04;11.15;;;5.20;;
42084;SDS011;27746;52.228;20.890;2022-12-29T15:00:34;11.27;;;5.13;;
42084;SDS011;27746;52.228;20.890;2022-12-29T15:03:04;13.10;;;6.10;;
42084;SDS011;27746;52.228;20.890;2022-12-29T15:05:33;12.98;;;5.28;;
42084;SDS011;27746;52.228;20.890;2022-12-29T15:08:02;10.13;;;5.63;;